sensor_id;sensor_type;location;lat;lon;timestamp;pressure;altitude;pressure_sealevel;temperature;humidity
60465;BME280;46314;52.392;9.758;2023-05-24T00:00:00;101445.03;;;12.00;61.11
60465;BME280;46314;52.392;9.758;2023-05-24T00:02:27;101435.97;;;11.84;61.63
60465;BME280;46314;52.392;9.758;2023-05-24T00:04:53;101438.19;;;11.87;61.19
60465;BME280;46314;52.392;9.758;2023-05-24T00:07:20;101434.97;;;12.04;60.69
60465;BME280;46314;52.392;9.758;2023-05-24T00:09:46;101437.28;;;11.97;61.00
60465;BME280;46314;52.392;9.758;2023-05-24T00:12:13;101431.41;;;11.99;61.37
60465;BME280;46314;52.392;9.758;2023-05-24T00:14:41;101430.94;;;11.86;61.43
60465;BME280;46314;52.392;9.758;2023-05-24T00:17:07;101442.25;;;12.00;61.62
60465;BME280;46314;52.392;9.758;2023-05-24T00:19:34;101432.97;;;11.75;61.77
60465;BME280;46314;52.392;9.758;2023-05-24T00:22:00;101432.78;;;11.67;62.16
60465;BME280;46314;52.392;9.758;2023-05-24T00:24:27;101437.41;;;11.42;63.13
60465;BME280;46314;52.392;9.758;2023-05-24T00:26:53;101432.25;;;11.65;62.32
60465;BME280;46314;52.392;9.758;2023-05-24T00:29:20;101431.81;;;11.82;61.81
60465;BME280;46314;52.392;9.758;2023-05-24T00:31:47;101435.97;;;11.45;63.21
60465;BME280;46314;52.392;9.758;2023-05-24T00:34:14;101428.00;;;11.38;63.05
60465;BME280;46314;52.392;9.758;2023-05-24T00:36:40;101431.13;;;11.21;64.27
60465;BME280;46314;52.392;9.758;2023-05-24T00:39:07;101433.56;;;11.33;63.62
60465;BME280;46314;52.392;9.758;2023-05-24T00:41:33;101432.53;;;11.18;64.45
60465;BME280;46314;52.392;9.758;2023-05-24T00:44:00;101433.66;;;11.17;64.27
60465;BME280;46314;52.392;9.758;2023-05-24T00:46:28;101436.25;;;11.43;63.87
60465;BME280;46314;52.392;9.758;2023-05-24T00:48:56;101423.16;;;11.54;62.90
60465;BME280;46314;52.392;9.758;2023-05-24T00:51:23;101429.84;;;11.48;63.42
60465;BME280;46314;52.392;9.758;2023-05-24T00:53:50;101423.97;;;11.54;63.25
60465;BME280;46314;52.392;9.758;2023-05-24T00:56:17;101429.44;;;11.25;63.94
60465;BME280;46314;52.392;9.758;2023-05-24T00:58:44;101428.47;;;11.50;63.37
60465;BME280;46314;52.392;9.758;2023-05-24T01:01:10;101419.69;;;11.67;62.62
60465;BME280;46314;52.392;9.758;2023-05-24T01:03:37;101423.69;;;11.90;61.92
60465;BME280;46314;52.392;9.758;2023-05-24T01:06:06;101430.59;;;11.98;61.93
60465;BME280;46314;52.392;9.758;2023-05-24T01:08:44;101417.44;;;11.35;63.20
60465;BME280;46314;52.392;9.758;2023-05-24T01:11:20;101415.47;;;11.41;63.13
60465;BME280;46314;52.392;9.758;2023-05-24T01:13:56;101419.03;;;11.46;63.40
60465;BME280;46314;52.392;9.758;2023-05-24T01:16:28;101423.06;;;11.25;63.83
60465;BME280;46314;52.392;9.758;2023-05-24T01:19:00;101411.50;;;11.07;64.69
60465;BME280;46314;52.392;9.758;2023-05-24T01:21:38;101412.66;;;11.01;64.73
60465;BME280;46314;52.392;9.758;2023-05-24T01:24:13;101402.09;;;11.43;63.61
60465;BME280;46314;52.392;9.758;2023-05-24T01:26:54;101410.16;;;11.44;63.45
60465;BME280;46314;52.392;9.758;2023-05-24T01:29:22;101404.28;;;11.51;62.84
60465;BME280;46314;52.392;9.758;2023-05-24T01:31:49;101400.09;;;11.14;64.52
60465;BME280;46314;52.392;9.758;2023-05-24T01:34:15;101403.72;;;11.54;63.37
60465;BME280;46314;52.392;9.758;2023-05-24T01:36:42;101403.59;;;11.30;64.00
60465;BME280;46314;52.392;9.758;2023-05-24T01:39:08;101398.53;;;11.37;63.69
60465;BME280;46314;52.392;9.758;2023-05-24T01:41:38;101408.13;;;11.15;64.61
60465;BME280;46314;52.392;9.758;2023-05-24T01:44:13;101401.41;;;11.22;64.69
60465;BME280;46314;52.392;9.758;2023-05-24T01:46:41;101404.84;;;11.48;63.76
60465;BME280;46314;52.392;9.758;2023-05-24T01:49:19;101402.69;;;11.40;64.05
60465;BME280;46314;52.392;9.758;2023-05-24T01:51:49;101397.72;;;11.71;63.19
60465;BME280;46314;52.392;9.758;2023-05-24T01:54:19;101397.91;;;11.50;64.51
60465;BME280;46314;52.392;9.758;2023-05-24T01:56:47;101390.66;;;11.49;63.99
60465;BME280;46314;52.392;9.758;2023-05-24T01:59:16;101385.66;;;11.51;64.83
60465;BME280;46314;52.392;9.758;2023-05-24T02:01:43;101383.75;;;11.07;65.78
60465;BME280;46314;52.392;9.758;2023-05-24T02:04:09;101383.63;;;11.28;65.07
60465;BME280;46314;52.392;9.758;2023-05-24T02:06:36;101384.97;;;11.30;65.53
60465;BME280;46314;52.392;9.758;2023-05-24T02:09:02;101379.47;;;11.60;64.66
60465;BME280;46314;52.392;9.758;2023-05-24T02:11:29;101380.41;;;11.45;64.55
60465;BME280;46314;52.392;9.758;2023-05-24T02:13:55;101372.81;;;11.21;65.84
60465;BME280;46314;52.392;9.758;2023-05-24T02:16:23;101368.84;;;11.32;65.68
60465;BME280;46314;52.392;9.758;2023-05-24T02:18:50;101371.38;;;11.29;65.83
60465;BME280;46314;52.392;9.758;2023-05-24T02:21:16;101377.28;;;11.56;65.17
60465;BME280;46314;52.392;9.758;2023-05-24T02:23:43;101376.50;;;11.80;64.39
60465;BME280;46314;52.392;9.758;2023-05-24T02:26:09;101371.22;;;11.10;66.95
60465;BME280;46314;52.392;9.758;2023-05-24T02:28:36;101363.97;;;11.53;65.67
60465;BME280;46314;52.392;9.758;2023-05-24T02:31:03;101371.19;;;11.15;66.66
60465;BME280;46314;52.392;9.758;2023-05-24T02:33:31;101367.78;;;11.28;66.40
60465;BME280;46314;52.392;9.758;2023-05-24T02:35:57;101361.88;;;11.40;66.30
60465;BME280;46314;52.392;9.758;2023-05-24T02:38:24;101362.41;;;11.42;66.63
60465;BME280;46314;52.392;9.758;2023-05-24T02:40:50;101358.59;;;11.33;66.73
60465;BME280;46314;52.392;9.758;2023-05-24T02:43:17;101363.47;;;11.46;66.12
60465;BME280;46314;52.392;9.758;2023-05-24T02:45:44;101358.31;;;11.64;65.67
60465;BME280;46314;52.392;9.758;2023-05-24T02:48:10;101350.03;;;11.24;67.56
60465;BME280;46314;52.392;9.758;2023-05-24T02:50:38;101354.66;;;11.34;67.49
60465;BME280;46314;52.392;9.758;2023-05-24T02:53:04;101358.38;;;11.24;66.73
60465;BME280;46314;52.392;9.758;2023-05-24T02:55:31;101357.34;;;11.49;66.76
60465;BME280;46314;52.392;9.758;2023-05-24T02:57:57;101363.16;;;11.13;68.07
60465;BME280;46314;52.392;9.758;2023-05-24T03:00:24;101366.31;;;11.36;67.48
60465;BME280;46314;52.392;9.758;2023-05-24T03:02:50;101368.03;;;11.32;67.79
60465;BME280;46314;52.392;9.758;2023-05-24T03:05:17;101358.47;;;11.43;67.06
60465;BME280;46314;52.392;9.758;2023-05-24T03:07:45;101360.81;;;11.65;65.93
60465;BME280;46314;52.392;9.758;2023-05-24T03:10:11;101365.00;;;11.63;66.23
60465;BME280;46314;52.392;9.758;2023-05-24T03:12:41;101369.72;;;11.28;67.38
60465;BME280;46314;52.392;9.758;2023-05-24T03:15:08;101358.88;;;11.61;66.15
60465;BME280;46314;52.392;9.758;2023-05-24T03:17:35;101368.53;;;11.39;66.73
60465;BME280;46314;52.392;9.758;2023-05-24T03:20:02;101370.56;;;11.28;67.31
60465;BME280;46314;52.392;9.758;2023-05-24T03:22:29;101369.59;;;11.43;66.96
60465;BME280;46314;52.392;9.758;2023-05-24T03:24:56;101359.25;;;11.54;66.12
60465;BME280;46314;52.392;9.758;2023-05-24T03:27:23;101359.59;;;11.47;66.61
60465;BME280;46314;52.392;9.758;2023-05-24T03:29:49;101357.09;;;11.46;66.22
60465;BME280;46314;52.392;9.758;2023-05-24T03:32:16;101357.88;;;11.51;66.41
60465;BME280;46314;52.392;9.758;2023-05-24T03:34:42;101350.72;;;11.45;66.96
60465;BME280;46314;52.392;9.758;2023-05-24T03:37:09;101356.97;;;11.61;66.15
60465;BME280;46314;52.392;9.758;2023-05-24T03:39:35;101356.47;;;11.54;66.31
60465;BME280;46314;52.392;9.758;2023-05-24T03:42:03;101363.34;;;11.62;65.92
60465;BME280;46314;52.392;9.758;2023-05-24T03:44:29;101366.28;;;11.41;67.25
60465;BME280;46314;52.392;9.758;2023-05-24T03:46:56;101367.44;;;11.69;66.40
60465;BME280;46314;52.392;9.758;2023-05-24T03:49:22;101368.28;;;11.70;66.31
60465;BME280;46314;52.392;9.758;2023-05-24T03:51:49;101368.03;;;11.66;66.22
60465;BME280;46314;52.392;9.758;2023-05-24T03:54:15;101369.44;;;11.64;66.56
60465;BME280;46314;52.392;9.758;2023-05-24T03:56:41;101379.19;;;11.61;66.51
60465;BME280;46314;52.392;9.758;2023-05-24T03:59:09;101377.06;;;11.82;65.96
60465;BME280;46314;52.392;9.758;2023-05-24T04:01:36;101375.94;;;11.83;65.64
60465;BME280;46314;52.392;9.758;2023-05-24T04:04:03;101379.13;;;12.01;65.32
60465;BME280;46314;52.392;9.758;2023-05-24T04:06:29;101379.41;;;11.99;65.62
60465;BME280;46314;52.392;9.758;2023-05-24T04:08:56;101380.41;;;11.79;66.35
60465;BME280;46314;52.392;9.758;2023-05-24T04:11:23;101384.59;;;12.11;65.37
60465;BME280;46314;52.392;9.758;2023-05-24T04:13:50;101382.56;;;11.92;65.46
60465;BME280;46314;52.392;9.758;2023-05-24T04:16:18;101378.72;;;11.83;65.61
60465;BME280;46314;52.392;9.758;2023-05-24T04:18:45;101380.00;;;11.62;67.50
60465;BME280;46314;52.392;9.758;2023-05-24T04:21:11;101387.31;;;12.16;65.82
60465;BME280;46314;52.392;9.758;2023-05-24T04:23:38;101389.91;;;12.07;65.87
60465;BME280;46314;52.392;9.758;2023-05-24T04:26:04;101383.69;;;11.86;66.07
60465;BME280;46314;52.392;9.758;2023-05-24T04:28:31;101384.69;;;12.01;65.79
60465;BME280;46314;52.392;9.758;2023-05-24T04:30:57;101389.19;;;11.97;66.01
60465;BME280;46314;52.392;9.758;2023-05-24T04:33:25;101390.28;;;12.25;64.90
60465;BME280;46314;52.392;9.758;2023-05-24T04:35:52;101386.88;;;12.33;64.83
60465;BME280;46314;52.392;9.758;2023-05-24T04:38:18;101382.94;;;12.34;64.64
60465;BME280;46314;52.392;9.758;2023-05-24T04:40:47;101386.13;;;12.22;64.59
60465;BME280;46314;52.392;9.758;2023-05-24T04:43:13;101390.94;;;12.41;64.66
60465;BME280;46314;52.392;9.758;2023-05-24T04:45:40;101392.63;;;12.61;63.99
60465;BME280;46314;52.392;9.758;2023-05-24T04:48:06;101387.06;;;13.04;62.61
60465;BME280;46314;52.392;9.758;2023-05-24T04:50:34;101392.72;;;13.56;61.04
60465;BME280;46314;52.392;9.758;2023-05-24T04:53:00;101396.16;;;13.34;60.99
60465;BME280;46314;52.392;9.758;2023-05-24T04:55:27;101399.44;;;13.36;61.32
60465;BME280;46314;52.392;9.758;2023-05-24T04:57:53;101396.84;;;13.77;60.02
60465;BME280;46314;52.392;9.758;2023-05-24T05:00:20;101388.13;;;13.65;60.17
60465;BME280;46314;52.392;9.758;2023-05-24T05:02:47;101387.97;;;13.89;59.53
60465;BME280;46314;52.392;9.758;2023-05-24T05:05:13;101385.59;;;13.82;60.20
60465;BME280;46314;52.392;9.758;2023-05-24T05:07:41;101385.56;;;13.69;60.06
60465;BME280;46314;52.392;9.758;2023-05-24T05:10:08;101391.19;;;13.06;61.40
60465;BME280;46314;52.392;9.758;2023-05-24T05:12:34;101381.97;;;13.49;61.21
60465;BME280;46314;52.392;9.758;2023-05-24T05:15:01;101384.53;;;13.46;60.99
60465;BME280;46314;52.392;9.758;2023-05-24T05:17:27;101394.47;;;13.33;61.80
60465;BME280;46314;52.392;9.758;2023-05-24T05:19:54;101393.13;;;14.43;58.14
60465;BME280;46314;52.392;9.758;2023-05-24T05:22:20;101394.28;;;14.69;56.99
60465;BME280;46314;52.392;9.758;2023-05-24T05:24:48;101395.69;;;14.94;56.08
60465;BME280;46314;52.392;9.758;2023-05-24T05:27:14;101400.00;;;15.14;55.60
60465;BME280;46314;52.392;9.758;2023-05-24T05:29:41;101398.53;;;15.17;54.97
60465;BME280;46314;52.392;9.758;2023-05-24T05:32:07;101400.59;;;15.25;54.94
60465;BME280;46314;52.392;9.758;2023-05-24T05:34:34;101396.09;;;15.38;54.25
60465;BME280;46314;52.392;9.758;2023-05-24T05:37:00;101403.31;;;15.17;55.11
60465;BME280;46314;52.392;9.758;2023-05-24T05:39:27;101397.66;;;15.08;55.32
60465;BME280;46314;52.392;9.758;2023-05-24T05:41:55;101405.53;;;14.92;55.73
60465;BME280;46314;52.392;9.758;2023-05-24T05:44:21;101401.94;;;14.64;56.62
60465;BME280;46314;52.392;9.758;2023-05-24T05:46:47;101400.38;;;14.85;55.69
60465;BME280;46314;52.392;9.758;2023-05-24T05:49:14;101401.69;;;14.88;55.77
60465;BME280;46314;52.392;9.758;2023-05-24T05:51:41;101410.19;;;14.41;57.58
60465;BME280;46314;52.392;9.758;2023-05-24T05:54:07;101408.81;;;14.38;57.06
60465;BME280;46314;52.392;9.758;2023-05-24T05:56:34;101408.44;;;14.73;56.69
60465;BME280;46314;52.392;9.758;2023-05-24T05:59:01;101416.13;;;15.54;54.29
60465;BME280;46314;52.392;9.758;2023-05-24T06:01:28;101420.09;;;15.76;53.54
60465;BME280;46314;52.392;9.758;2023-05-24T06:03:54;101416.59;;;15.11;55.21
60465;BME280;46314;52.392;9.758;2023-05-24T06:06:21;101419.00;;;15.26;54.78
60465;BME280;46314;52.392;9.758;2023-05-24T06:08:47;101419.34;;;15.47;54.56
60465;BME280;46314;52.392;9.758;2023-05-24T06:11:14;101413.44;;;15.85;53.69
60465;BME280;46314;52.392;9.758;2023-05-24T06:13:40;101412.06;;;16.37;52.13
60465;BME280;46314;52.392;9.758;2023-05-24T06:16:08;101416.78;;;16.59;51.43
60465;BME280;46314;52.392;9.758;2023-05-24T06:18:34;101418.53;;;18.26;47.78
60465;BME280;46314;52.392;9.758;2023-05-24T06:21:01;101433.44;;;19.66;44.26
60465;BME280;46314;52.392;9.758;2023-05-24T06:23:27;101436.25;;;21.57;39.89
60465;BME280;46314;52.392;9.758;2023-05-24T06:25:54;101424.56;;;19.35;43.33
60465;BME280;46314;52.392;9.758;2023-05-24T06:28:20;101421.75;;;17.54;48.20
60465;BME280;46314;52.392;9.758;2023-05-24T06:30:46;101416.59;;;16.15;51.50
60465;BME280;46314;52.392;9.758;2023-05-24T06:33:14;101415.53;;;15.80;52.80
60465;BME280;46314;52.392;9.758;2023-05-24T06:35:41;101422.47;;;15.68;53.41
60465;BME280;46314;52.392;9.758;2023-05-24T06:38:08;101417.78;;;15.55;54.77
60465;BME280;46314;52.392;9.758;2023-05-24T06:40:34;101423.97;;;16.51;52.04
60465;BME280;46314;52.392;9.758;2023-05-24T06:43:00;101423.88;;;18.48;46.92
60465;BME280;46314;52.392;9.758;2023-05-24T06:45:27;101426.69;;;18.01;47.27
60465;BME280;46314;52.392;9.758;2023-05-24T06:47:53;101425.38;;;17.29;49.69
60465;BME280;46314;52.392;9.758;2023-05-24T06:50:21;101418.56;;;16.23;51.51
60465;BME280;46314;52.392;9.758;2023-05-24T06:52:48;101428.25;;;15.86;53.59
60465;BME280;46314;52.392;9.758;2023-05-24T06:55:15;101427.03;;;14.50;56.37
60465;BME280;46314;52.392;9.758;2023-05-24T06:57:41;101428.19;;;14.90;56.15
60465;BME280;46314;52.392;9.758;2023-05-24T07:00:08;101425.25;;;15.23;55.21
60465;BME280;46314;52.392;9.758;2023-05-24T07:02:35;101432.88;;;15.31;54.48
60465;BME280;46314;52.392;9.758;2023-05-24T07:05:02;101436.06;;;14.88;55.62
60465;BME280;46314;52.392;9.758;2023-05-24T07:07:29;101431.03;;;14.16;57.28
60465;BME280;46314;52.392;9.758;2023-05-24T07:09:56;101435.00;;;14.56;57.60
60465;BME280;46314;52.392;9.758;2023-05-24T07:12:22;101444.50;;;14.55;57.90
60465;BME280;46314;52.392;9.758;2023-05-24T07:14:49;101446.09;;;14.62;57.02
60465;BME280;46314;52.392;9.758;2023-05-24T07:17:15;101445.41;;;14.37;57.93
60465;BME280;46314;52.392;9.758;2023-05-24T07:19:42;101445.78;;;14.91;56.08
60465;BME280;46314;52.392;9.758;2023-05-24T07:22:08;101442.97;;;14.91;55.85
60465;BME280;46314;52.392;9.758;2023-05-24T07:24:36;101447.91;;;14.52;56.64
60465;BME280;46314;52.392;9.758;2023-05-24T07:27:03;101459.31;;;15.11;55.52
60465;BME280;46314;52.392;9.758;2023-05-24T07:29:29;101453.53;;;14.66;57.37
60465;BME280;46314;52.392;9.758;2023-05-24T07:31:57;101453.91;;;14.46;57.89
60465;BME280;46314;52.392;9.758;2023-05-24T07:34:23;101460.47;;;14.83;56.72
60465;BME280;46314;52.392;9.758;2023-05-24T07:36:50;101454.47;;;14.15;58.63
60465;BME280;46314;52.392;9.758;2023-05-24T07:39:16;101455.44;;;14.38;58.23
60465;BME280;46314;52.392;9.758;2023-05-24T07:41:44;101461.22;;;14.28;58.93
60465;BME280;46314;52.392;9.758;2023-05-24T07:44:11;101460.00;;;14.01;59.50
60465;BME280;46314;52.392;9.758;2023-05-24T07:46:38;101457.69;;;14.22;58.91
60465;BME280;46314;52.392;9.758;2023-05-24T07:49:04;101462.63;;;14.11;59.59
60465;BME280;46314;52.392;9.758;2023-05-24T07:51:32;101467.31;;;14.16;59.99
60465;BME280;46314;52.392;9.758;2023-05-24T07:54:01;101470.59;;;14.18;59.76
60465;BME280;46314;52.392;9.758;2023-05-24T07:56:28;101477.56;;;14.01;60.20
60465;BME280;46314;52.392;9.758;2023-05-24T07:58:56;101477.00;;;13.67;62.42
60465;BME280;46314;52.392;9.758;2023-05-24T08:01:22;101475.66;;;14.16;61.44
60465;BME280;46314;52.392;9.758;2023-05-24T08:03:49;101486.41;;;14.23;61.73
60465;BME280;46314;52.392;9.758;2023-05-24T08:06:15;101487.97;;;13.96;64.86
60465;BME280;46314;52.392;9.758;2023-05-24T08:08:42;101479.28;;;14.77;63.05
60465;BME280;46314;52.392;9.758;2023-05-24T08:11:08;101484.25;;;14.19;64.73
60465;BME280;46314;52.392;9.758;2023-05-24T08:13:34;101486.06;;;14.10;65.99
60465;BME280;46314;52.392;9.758;2023-05-24T08:16:02;101480.25;;;14.39;65.56
60465;BME280;46314;52.392;9.758;2023-05-24T08:18:29;101484.66;;;14.13;66.04
60465;BME280;46314;52.392;9.758;2023-05-24T08:20:55;101476.78;;;14.15;66.34
60465;BME280;46314;52.392;9.758;2023-05-24T08:23:22;101485.19;;;13.96;67.23
60465;BME280;46314;52.392;9.758;2023-05-24T08:25:48;101480.78;;;13.95;68.25
60465;BME280;46314;52.392;9.758;2023-05-24T08:28:14;101486.16;;;14.05;67.95
60465;BME280;46314;52.392;9.758;2023-05-24T08:30:41;101490.06;;;13.33;70.62
60465;BME280;46314;52.392;9.758;2023-05-24T08:33:09;101490.53;;;14.11;67.91
60465;BME280;46314;52.392;9.758;2023-05-24T08:35:35;101486.38;;;14.09;68.29
60465;BME280;46314;52.392;9.758;2023-05-24T08:38:02;101481.69;;;14.23;67.48
60465;BME280;46314;52.392;9.758;2023-05-24T08:40:28;101484.78;;;14.22;67.44
60465;BME280;46314;52.392;9.758;2023-05-24T08:42:59;101496.28;;;14.01;68.42
60465;BME280;46314;52.392;9.758;2023-05-24T08:45:28;101503.97;;;13.52;70.97
60465;BME280;46314;52.392;9.758;2023-05-24T08:47:55;101499.03;;;13.25;72.21
60465;BME280;46314;52.392;9.758;2023-05-24T08:50:24;101504.50;;;13.73;71.04
60465;BME280;46314;52.392;9.758;2023-05-24T08:52:51;101509.41;;;13.62;71.34
60465;BME280;46314;52.392;9.758;2023-05-24T08:55:20;101513.50;;;14.22;69.65
60465;BME280;46314;52.392;9.758;2023-05-24T08:57:47;101511.47;;;13.76;71.18
60465;BME280;46314;52.392;9.758;2023-05-24T09:00:14;101512.13;;;13.49;72.57
60465;BME280;46314;52.392;9.758;2023-05-24T09:02:42;101515.16;;;13.28;72.46
60465;BME280;46314;52.392;9.758;2023-05-24T09:05:11;101507.28;;;13.92;70.72
60465;BME280;46314;52.392;9.758;2023-05-24T09:07:41;101513.19;;;14.24;69.88
60465;BME280;46314;52.392;9.758;2023-05-24T09:10:09;101512.94;;;14.06;69.83
60465;BME280;46314;52.392;9.758;2023-05-24T09:12:36;101509.22;;;14.57;68.71
60465;BME280;46314;52.392;9.758;2023-05-24T09:15:06;101514.16;;;14.80;67.59
60465;BME280;46314;52.392;9.758;2023-05-24T09:17:34;101513.72;;;14.58;68.09
60465;BME280;46314;52.392;9.758;2023-05-24T09:20:02;101511.69;;;14.45;68.62
60465;BME280;46314;52.392;9.758;2023-05-24T09:22:29;101510.72;;;13.70;70.22
60465;BME280;46314;52.392;9.758;2023-05-24T09:24:59;101513.03;;;14.34;69.43
60465;BME280;46314;52.392;9.758;2023-05-24T09:27:27;101507.22;;;14.30;67.39
60465;BME280;46314;52.392;9.758;2023-05-24T09:29:54;101503.91;;;14.28;69.34
60465;BME280;46314;52.392;9.758;2023-05-24T09:32:21;101520.13;;;13.93;70.41
60465;BME280;46314;52.392;9.758;2023-05-24T09:34:50;101513.25;;;13.67;70.21
60465;BME280;46314;52.392;9.758;2023-05-24T09:37:18;101517.84;;;13.95;69.63
60465;BME280;46314;52.392;9.758;2023-05-24T09:39:46;101522.31;;;13.77;70.32
60465;BME280;46314;52.392;9.758;2023-05-24T09:42:15;101518.25;;;14.22;68.64
60465;BME280;46314;52.392;9.758;2023-05-24T09:44:42;101524.63;;;14.41;67.74
60465;BME280;46314;52.392;9.758;2023-05-24T09:47:09;101522.06;;;13.93;69.83
60465;BME280;46314;52.392;9.758;2023-05-24T09:49:36;101521.31;;;14.39;67.60
60465;BME280;46314;52.392;9.758;2023-05-24T09:52:03;101516.06;;;14.51;67.63
60465;BME280;46314;52.392;9.758;2023-05-24T09:54:30;101517.28;;;15.06;65.91
60465;BME280;46314;52.392;9.758;2023-05-24T09:56:59;101519.56;;;14.90;65.46
60465;BME280;46314;52.392;9.758;2023-05-24T09:59:31;101521.91;;;14.96;66.19
60465;BME280;46314;52.392;9.758;2023-05-24T10:02:06;101518.81;;;15.12;64.25
60465;BME280;46314;52.392;9.758;2023-05-24T10:04:32;101515.38;;;15.43;63.80
60465;BME280;46314;52.392;9.758;2023-05-24T10:06:59;101517.47;;;14.95;65.51
60465;BME280;46314;52.392;9.758;2023-05-24T10:09:28;101515.91;;;15.03;65.79
60465;BME280;46314;52.392;9.758;2023-05-24T10:11:54;101508.59;;;14.80;66.11
60465;BME280;46314;52.392;9.758;2023-05-24T10:14:21;101510.31;;;14.62;66.92
60465;BME280;46314;52.392;9.758;2023-05-24T10:16:49;101514.78;;;14.44;67.88
60465;BME280;46314;52.392;9.758;2023-05-24T10:19:16;101509.06;;;14.68;67.78
60465;BME280;46314;52.392;9.758;2023-05-24T10:21:43;101513.66;;;14.77;68.68
60465;BME280;46314;52.392;9.758;2023-05-24T10:24:12;101521.41;;;14.34;70.07
60465;BME280;46314;52.392;9.758;2023-05-24T10:26:39;101517.53;;;14.30;70.24
60465;BME280;46314;52.392;9.758;2023-05-24T10:29:09;101516.66;;;14.81;68.36
60465;BME280;46314;52.392;9.758;2023-05-24T10:31:40;101528.19;;;14.28;71.52
60465;BME280;46314;52.392;9.758;2023-05-24T10:34:09;101526.88;;;14.06;72.15
60465;BME280;46314;52.392;9.758;2023-05-24T10:36:36;101524.31;;;14.10;72.06
60465;BME280;46314;52.392;9.758;2023-05-24T10:39:03;101532.47;;;13.68;72.92
60465;BME280;46314;52.392;9.758;2023-05-24T10:41:38;101529.38;;;14.08;71.64
60465;BME280;46314;52.392;9.758;2023-05-24T10:44:09;101531.53;;;14.44;70.89
60465;BME280;46314;52.392;9.758;2023-05-24T10:47:05;101536.13;;;14.20;71.90
60465;BME280;46314;52.392;9.758;2023-05-24T10:49:33;101530.72;;;14.43;71.55
60465;BME280;46314;52.392;9.758;2023-05-24T10:52:00;101531.03;;;14.74;69.90
60465;BME280;46314;52.392;9.758;2023-05-24T10:54:26;101532.28;;;15.10;69.26
60465;BME280;46314;52.392;9.758;2023-05-24T10:56:53;101534.16;;;15.01;68.53
60465;BME280;46314;52.392;9.758;2023-05-24T10:59:27;101531.94;;;14.70;70.27
60465;BME280;46314;52.392;9.758;2023-05-24T11:01:55;101526.44;;;14.65;70.35
60465;BME280;46314;52.392;9.758;2023-05-24T11:04:21;101531.53;;;14.76;69.97
60465;BME280;46314;52.392;9.758;2023-05-24T11:06:55;101537.88;;;14.49;69.92
60465;BME280;46314;52.392;9.758;2023-05-24T11:09:22;101529.63;;;14.58;69.65
60465;BME280;46314;52.392;9.758;2023-05-24T11:11:53;101531.84;;;14.75;69.54
60465;BME280;46314;52.392;9.758;2023-05-24T11:14:22;101536.44;;;14.52;70.45
60465;BME280;46314;52.392;9.758;2023-05-24T11:16:49;101527.28;;;14.79;69.67
60465;BME280;46314;52.392;9.758;2023-05-24T11:19:17;101534.53;;;14.80;69.32
60465;BME280;46314;52.392;9.758;2023-05-24T11:21:45;101532.25;;;14.68;69.48
60465;BME280;46314;52.392;9.758;2023-05-24T11:24:15;101532.38;;;14.91;68.77
60465;BME280;46314;52.392;9.758;2023-05-24T11:26:42;101534.94;;;14.73;68.39
60465;BME280;46314;52.392;9.758;2023-05-24T11:29:09;101536.41;;;15.12;66.91
60465;BME280;46314;52.392;9.758;2023-05-24T11:31:37;101536.59;;;15.44;65.97
60465;BME280;46314;52.392;9.758;2023-05-24T11:34:09;101536.63;;;15.02;67.45
60465;BME280;46314;52.392;9.758;2023-05-24T11:36:35;101540.56;;;15.15;67.08
60465;BME280;46314;52.392;9.758;2023-05-24T11:39:06;101530.81;;;15.26;66.19
60465;BME280;46314;52.392;9.758;2023-05-24T11:41:38;101535.56;;;15.40;66.23
60465;BME280;46314;52.392;9.758;2023-05-24T11:44:06;101536.59;;;15.30;67.75
60465;BME280;46314;52.392;9.758;2023-05-24T11:46:33;101543.19;;;15.62;66.27
60465;BME280;46314;52.392;9.758;2023-05-24T11:49:00;101539.47;;;15.52;66.17
60465;BME280;46314;52.392;9.758;2023-05-24T11:51:27;101540.59;;;16.02;64.67
60465;BME280;46314;52.392;9.758;2023-05-24T11:53:54;101541.03;;;15.95;65.00
60465;BME280;46314;52.392;9.758;2023-05-24T11:56:21;101538.34;;;15.53;66.33
60465;BME280;46314;52.392;9.758;2023-05-24T11:58:49;101540.75;;;15.46;66.93
60465;BME280;46314;52.392;9.758;2023-05-24T12:01:24;101536.19;;;15.09;68.76
60465;BME280;46314;52.392;9.758;2023-05-24T12:03:51;101540.84;;;15.41;67.20
60465;BME280;46314;52.392;9.758;2023-05-24T12:06:17;101539.28;;;15.49;67.53
60465;BME280;46314;52.392;9.758;2023-05-24T12:08:44;101537.16;;;15.82;66.25
60465;BME280;46314;52.392;9.758;2023-05-24T12:11:11;101534.66;;;15.67;67.02
60465;BME280;46314;52.392;9.758;2023-05-24T12:13:38;101540.06;;;15.63;65.54
60465;BME280;46314;52.392;9.758;2023-05-24T12:16:06;101532.41;;;16.05;64.13
60465;BME280;46314;52.392;9.758;2023-05-24T12:18:33;101535.88;;;15.38;65.99
60465;BME280;46314;52.392;9.758;2023-05-24T12:21:07;101539.66;;;16.29;64.09
60465;BME280;46314;52.392;9.758;2023-05-24T12:23:34;101538.19;;;15.73;65.77
60465;BME280;46314;52.392;9.758;2023-05-24T12:26:00;101536.88;;;16.06;64.57
60465;BME280;46314;52.392;9.758;2023-05-24T12:28:31;101541.38;;;15.94;65.04
60465;BME280;46314;52.392;9.758;2023-05-24T12:30:58;101539.16;;;16.27;63.78
60465;BME280;46314;52.392;9.758;2023-05-24T12:33:26;101535.44;;;16.40;62.97
60465;BME280;46314;52.392;9.758;2023-05-24T12:35:53;101528.34;;;16.65;62.22
60465;BME280;46314;52.392;9.758;2023-05-24T12:38:19;101533.91;;;16.88;60.96
60465;BME280;46314;52.392;9.758;2023-05-24T12:40:46;101532.47;;;16.91;61.12
60465;BME280;46314;52.392;9.758;2023-05-24T12:43:29;101528.91;;;17.16;60.45
60465;BME280;46314;52.392;9.758;2023-05-24T12:45:55;101525.66;;;17.23;60.61
60465;BME280;46314;52.392;9.758;2023-05-24T12:48:21;101527.50;;;16.88;60.59
60465;BME280;46314;52.392;9.758;2023-05-24T12:50:49;101519.47;;;17.03;60.13